sensor_id;sensor_type;location;lat;lon;timestamp;temperature;humidity
72602;DHT22;60644;55.858;37.390;2023-01-08T00:02:23;-16.28;57.55
72602;DHT22;60644;55.858;37.390;2023-01-08T00:04:49;-16.22;57.82
72602;DHT22;60644;55.858;37.390;2023-01-08T00:07:15;-16.17;57.77
72602;DHT22;60644;55.858;37.390;2023-01-08T00:09:41;-16.11;57.63
72602;DHT22;60644;55.858;37.390;2023-01-08T00:12:07;-16.06;57.44
72602;DHT22;60644;55.858;37.390;2023-01-08T00:14:33;-16.05;57.26
72602;DHT22;60644;55.858;37.390;2023-01-08T00:16:59;-16.10;57.10
72602;DHT22;60644;55.858;37.390;2023-01-08T00:19:24;-16.12;57.39
72602;DHT22;60644;55.858;37.390;2023-01-08T00:21:50;-16.13;57.30
72602;DHT22;60644;55.858;37.390;2023-01-08T00:24:16;-16.13;57.47
72602;DHT22;60644;55.858;37.390;2023-01-08T00:26:42;-16.12;57.56
72602;DHT22;60644;55.858;37.390;2023-01-08T00:29:08;-16.08;57.84
72602;DHT22;60644;55.858;37.390;2023-01-08T00:31:34;-16.04;57.76
72602;DHT22;60644;55.858;37.390;2023-01-08T00:34:00;-15.98;57.90
72602;DHT22;60644;55.858;37.390;2023-01-08T00:36:25;-15.92;58.02
72602;DHT22;60644;55.858;37.390;2023-01-08T00:38:51;-15.88;57.93
72602;DHT22;60644;55.858;37.390;2023-01-08T00:41:17;-15.85;57.73
72602;DHT22;60644;55.858;37.390;2023-01-08T00:43:43;-15.82;57.71
72602;DHT22;60644;55.858;37.390;2023-01-08T00:46:09;-15.81;57.69
72602;DHT22;60644;55.858;37.390;2023-01-08T00:48:35;-15.81;57.60
72602;DHT22;60644;55.858;37.390;2023-01-08T00:51:04;-15.80;57.57
72602;DHT22;60644;55.858;37.390;2023-01-08T00:53:30;-15.78;57.42
72602;DHT22;60644;55.858;37.390;2023-01-08T00:56:01;-15.78;57.41
72602;DHT22;60644;55.858;37.390;2023-01-08T00:58:28;-15.77;57.39
72602;DHT22;60644;55.858;37.390;2023-01-08T01:00:54;-15.80;56.48
72602;DHT22;60644;55.858;37.390;2023-01-08T01:03:20;-15.82;56.89
72602;DHT22;60644;55.858;37.390;2023-01-08T01:05:46;-15.81;57.20
72602;DHT22;60644;55.858;37.390;2023-01-08T01:08:12;-15.80;57.12
72602;DHT22;60644;55.858;37.390;2023-01-08T01:10:38;-15.79;57.24
72602;DHT22;60644;55.858;37.390;2023-01-08T01:13:04;-15.78;57.09
72602;DHT22;60644;55.858;37.390;2023-01-08T01:15:30;-15.85;56.64
72602;DHT22;60644;55.858;37.390;2023-01-08T01:17:56;-15.83;57.03
72602;DHT22;60644;55.858;37.390;2023-01-08T01:20:22;-15.88;57.03
72602;DHT22;60644;55.858;37.390;2023-01-08T01:22:49;-15.87;57.06
72602;DHT22;60644;55.858;37.390;2023-01-08T01:25:15;-15.84;57.29
72602;DHT22;60644;55.858;37.390;2023-01-08T01:27:41;-15.82;57.46
72602;DHT22;60644;55.858;37.390;2023-01-08T01:30:08;-15.77;57.74
72602;DHT22;60644;55.858;37.390;2023-01-08T01:32:34;-15.72;57.87
72602;DHT22;60644;55.858;37.390;2023-01-08T01:35:00;-15.67;57.64
72602;DHT22;60644;55.858;37.390;2023-01-08T01:37:26;-15.66;57.80
72602;DHT22;60644;55.858;37.390;2023-01-08T01:39:52;-15.64;57.74
72602;DHT22;60644;55.858;37.390;2023-01-08T01:42:18;-15.63;57.77
72602;DHT22;60644;55.858;37.390;2023-01-08T01:45:14;-15.59;57.96
72602;DHT22;60644;55.858;37.390;2023-01-08T01:47:42;-15.51;57.96
72602;DHT22;60644;55.858;37.390;2023-01-08T01:50:48;-15.50;57.93
72602;DHT22;60644;55.858;37.390;2023-01-08T01:53:26;-15.49;57.98
72602;DHT22;60644;55.858;37.390;2023-01-08T01:55:54;-15.45;58.14
72602;DHT22;60644;55.858;37.390;2023-01-08T01:58:23;-15.43;58.07
72602;DHT22;60644;55.858;37.390;2023-01-08T02:00:51;-15.39;58.13
72602;DHT22;60644;55.858;37.390;2023-01-08T02:03:21;-15.37;57.84
72602;DHT22;60644;55.858;37.390;2023-01-08T02:05:55;-15.35;57.77
72602;DHT22;60644;55.858;37.390;2023-01-08T02:11:20;-15.32;57.87
72602;DHT22;60644;55.858;37.390;2023-01-08T02:16:41;-15.29;57.84
72602;DHT22;60644;55.858;37.390;2023-01-08T02:22:37;-15.26;57.81
72602;DHT22;60644;55.858;37.390;2023-01-08T02:27:33;-15.24;57.84
72602;DHT22;60644;55.858;37.390;2023-01-08T02:30:03;-15.22;57.87
72602;DHT22;60644;55.858;37.390;2023-01-08T02:32:36;-15.26;57.22
72602;DHT22;60644;55.858;37.390;2023-01-08T02:35:04;-15.33;57.05
72602;DHT22;60644;55.858;37.390;2023-01-08T02:37:31;-15.44;57.46
72602;DHT22;60644;55.858;37.390;2023-01-08T02:40:31;-15.43;57.61
72602;DHT22;60644;55.858;37.390;2023-01-08T02:43:12;-15.51;57.42
72602;DHT22;60644;55.858;37.390;2023-01-08T02:45:42;-15.50;57.80
72602;DHT22;60644;55.858;37.390;2023-01-08T02:51:28;-15.58;57.61
72602;DHT22;60644;55.858;37.390;2023-01-08T02:54:01;-15.66;57.62
72602;DHT22;60644;55.858;37.390;2023-01-08T02:56:31;-15.74;58.08
72602;DHT22;60644;55.858;37.390;2023-01-08T02:58:59;-15.78;58.09
72602;DHT22;60644;55.858;37.390;2023-01-08T03:01:27;-15.82;58.27
72602;DHT22;60644;55.858;37.390;2023-01-08T03:03:57;-15.80;58.22
72602;DHT22;60644;55.858;37.390;2023-01-08T03:06:24;-15.76;58.17
72602;DHT22;60644;55.858;37.390;2023-01-08T03:08:53;-15.78;58.10
72602;DHT22;60644;55.858;37.390;2023-01-08T03:11:22;-15.84;58.36
72602;DHT22;60644;55.858;37.390;2023-01-08T03:16:35;-16.03;58.93
72602;DHT22;60644;55.858;37.390;2023-01-08T03:19:19;-16.09;59.32
72602;DHT22;60644;55.858;37.390;2023-01-08T03:21:47;-16.15;59.74
72602;DHT22;60644;55.858;37.390;2023-01-08T03:24:17;-16.17;59.80
72602;DHT22;60644;55.858;37.390;2023-01-08T03:26:46;-16.18;60.16
72602;DHT22;60644;55.858;37.390;2023-01-08T03:29:15;-16.17;60.49
72602;DHT22;60644;55.858;37.390;2023-01-08T03:31:43;-16.05;60.31
72602;DHT22;60644;55.858;37.390;2023-01-08T03:34:12;-15.93;60.28
72602;DHT22;60644;55.858;37.390;2023-01-08T03:36:40;-15.85;60.25
72602;DHT22;60644;55.858;37.390;2023-01-08T03:39:15;-15.72;60.30
72602;DHT22;60644;55.858;37.390;2023-01-08T03:41:41;-15.70;60.28
72602;DHT22;60644;55.858;37.390;2023-01-08T03:44:07;-15.74;60.46
72602;DHT22;60644;55.858;37.390;2023-01-08T03:46:37;-15.67;60.47
72602;DHT22;60644;55.858;37.390;2023-01-08T03:49:05;-15.65;60.67
72602;DHT22;60644;55.858;37.390;2023-01-08T03:51:42;-15.69;61.15
72602;DHT22;60644;55.858;37.390;2023-01-08T03:54:14;-15.60;61.18
72602;DHT22;60644;55.858;37.390;2023-01-08T03:56:41;-15.51;61.11
72602;DHT22;60644;55.858;37.390;2023-01-08T03:59:06;-15.43;61.25
72602;DHT22;60644;55.858;37.390;2023-01-08T04:01:33;-15.33;61.25
72602;DHT22;60644;55.858;37.390;2023-01-08T04:03:59;-15.23;61.43
72602;DHT22;60644;55.858;37.390;2023-01-08T04:06:25;-15.15;61.18
72602;DHT22;60644;55.858;37.390;2023-01-08T04:08:51;-15.11;61.28
72602;DHT22;60644;55.858;37.390;2023-01-08T04:11:17;-15.03;61.16
72602;DHT22;60644;55.858;37.390;2023-01-08T04:13:43;-14.92;61.04
72602;DHT22;60644;55.858;37.390;2023-01-08T04:16:09;-14.78;60.93
72602;DHT22;60644;55.858;37.390;2023-01-08T04:18:34;-14.69;60.73
72602;DHT22;60644;55.858;37.390;2023-01-08T04:21:00;-14.58;60.58
72602;DHT22;60644;55.858;37.390;2023-01-08T04:23:26;-14.59;60.19
72602;DHT22;60644;55.858;37.390;2023-01-08T04:25:52;-14.57;60.10
72602;DHT22;60644;55.858;37.390;2023-01-08T04:28:18;-14.57;60.16
72602;DHT22;60644;55.858;37.390;2023-01-08T04:30:44;-14.52;60.30
72602;DHT22;60644;55.858;37.390;2023-01-08T04:33:10;-14.59;60.38
72602;DHT22;60644;55.858;37.390;2023-01-08T04:35:36;-14.65;60.54
72602;DHT22;60644;55.858;37.390;2023-01-08T04:38:01;-14.58;60.53
72602;DHT22;60644;55.858;37.390;2023-01-08T04:40:27;-14.58;60.65
72602;DHT22;60644;55.858;37.390;2023-01-08T04:42:53;-14.60;60.73
72602;DHT22;60644;55.858;37.390;2023-01-08T04:45:19;-14.70;60.85
72602;DHT22;60644;55.858;37.390;2023-01-08T04:47:45;-14.63;60.85
72602;DHT22;60644;55.858;37.390;2023-01-08T04:50:11;-14.52;60.84
72602;DHT22;60644;55.858;37.390;2023-01-08T04:52:37;-14.45;60.86
72602;DHT22;60644;55.858;37.390;2023-01-08T04:55:03;-14.37;60.84
72602;DHT22;60644;55.858;37.390;2023-01-08T04:57:29;-14.42;60.59
72602;DHT22;60644;55.858;37.390;2023-01-08T04:59:55;-14.45;60.70
72602;DHT22;60644;55.858;37.390;2023-01-08T05:02:21;-14.43;60.60
72602;DHT22;60644;55.858;37.390;2023-01-08T05:04:47;-14.39;60.69
72602;DHT22;60644;55.858;37.390;2023-01-08T05:07:13;-14.39;60.67
72602;DHT22;60644;55.858;37.390;2023-01-08T05:09:38;-14.37;60.72
72602;DHT22;60644;55.858;37.390;2023-01-08T05:12:04;-14.35;60.80
72602;DHT22;60644;55.858;37.390;2023-01-08T05:14:31;-14.37;60.89
72602;DHT22;60644;55.858;37.390;2023-01-08T05:16:56;-14.36;60.89
72602;DHT22;60644;55.858;37.390;2023-01-08T05:19:22;-14.31;61.03
72602;DHT22;60644;55.858;37.390;2023-01-08T05:21:48;-14.27;61.05
72602;DHT22;60644;55.858;37.390;2023-01-08T05:24:14;-14.17;61.10
72602;DHT22;60644;55.858;37.390;2023-01-08T05:26:40;-14.12;61.08
72602;DHT22;60644;55.858;37.390;2023-01-08T05:29:06;-14.06;60.94
72602;DHT22;60644;55.858;37.390;2023-01-08T05:31:31;-14.04;60.93
72602;DHT22;60644;55.858;37.390;2023-01-08T05:33:58;-14.02;60.87
72602;DHT22;60644;55.858;37.390;2023-01-08T05:36:24;-13.98;61.01
72602;DHT22;60644;55.858;37.390;2023-01-08T05:38:49;-13.88;61.51
72602;DHT22;60644;55.858;37.390;2023-01-08T05:41:15;-13.80;61.44
72602;DHT22;60644;55.858;37.390;2023-01-08T05:43:41;-13.72;61.23
72602;DHT22;60644;55.858;37.390;2023-01-08T05:46:07;-13.77;60.93
72602;DHT22;60644;55.858;37.390;2023-01-08T05:48:34;-13.77;60.81
72602;DHT22;60644;55.858;37.390;2023-01-08T05:51:01;-13.78;60.76
72602;DHT22;60644;55.858;37.390;2023-01-08T05:53:26;-13.75;60.71
72602;DHT22;60644;55.858;37.390;2023-01-08T05:55:57;-13.76;60.66
72602;DHT22;60644;55.858;37.390;2023-01-08T05:58:23;-13.81;60.18
72602;DHT22;60644;55.858;37.390;2023-01-08T06:00:52;-13.85;60.48
72602;DHT22;60644;55.858;37.390;2023-01-08T06:03:21;-13.88;60.40
72602;DHT22;60644;55.858;37.390;2023-01-08T06:05:47;-13.89;60.47
72602;DHT22;60644;55.858;37.390;2023-01-08T06:08:14;-13.89;60.47
72602;DHT22;60644;55.858;37.390;2023-01-08T06:10:40;-13.88;60.50
72602;DHT22;60644;55.858;37.390;2023-01-08T06:13:08;-13.89;60.40
72602;DHT22;60644;55.858;37.390;2023-01-08T06:15:34;-13.91;59.99
72602;DHT22;60644;55.858;37.390;2023-01-08T06:18:03;-13.93;60.06
72602;DHT22;60644;55.858;37.390;2023-01-08T06:20:29;-13.97;59.80
72602;DHT22;60644;55.858;37.390;2023-01-08T06:22:55;-13.97;59.94
72602;DHT22;60644;55.858;37.390;2023-01-08T06:25:21;-13.97;60.43
72602;DHT22;60644;55.858;37.390;2023-01-08T06:27:53;-13.92;60.59
72602;DHT22;60644;55.858;37.390;2023-01-08T06:30:19;-13.90;60.27
72602;DHT22;60644;55.858;37.390;2023-01-08T06:32:45;-13.91;59.90
72602;DHT22;60644;55.858;37.390;2023-01-08T06:35:11;-13.92;59.80
72602;DHT22;60644;55.858;37.390;2023-01-08T06:37:37;-13.92;59.87
72602;DHT22;60644;55.858;37.390;2023-01-08T06:40:03;-13.91;60.02
72602;DHT22;60644;55.858;37.390;2023-01-08T06:42:29;-13.91;59.99
72602;DHT22;60644;55.858;37.390;2023-01-08T06:44:55;-13.88;60.15
72602;DHT22;60644;55.858;37.390;2023-01-08T06:47:21;-13.86;59.97
72602;DHT22;60644;55.858;37.390;2023-01-08T06:49:47;-13.86;59.78
72602;DHT22;60644;55.858;37.390;2023-01-08T06:52:12;-13.85;59.96
72602;DHT22;60644;55.858;37.390;2023-01-08T06:54:38;-13.84;59.88
72602;DHT22;60644;55.858;37.390;2023-01-08T06:57:05;-13.88;59.44
72602;DHT22;60644;55.858;37.390;2023-01-08T06:59:31;-13.88;59.54
72602;DHT22;60644;55.858;37.390;2023-01-08T07:01:56;-13.85;59.88
72602;DHT22;60644;55.858;37.390;2023-01-08T07:04:22;-13.84;60.01
72602;DHT22;60644;55.858;37.390;2023-01-08T07:06:48;-13.82;60.07
72602;DHT22;60644;55.858;37.390;2023-01-08T07:09:14;-13.84;59.54
72602;DHT22;60644;55.858;37.390;2023-01-08T07:11:44;-13.84;59.98
72602;DHT22;60644;55.858;37.390;2023-01-08T07:14:10;-13.78;60.08
72602;DHT22;60644;55.858;37.390;2023-01-08T07:16:36;-13.75;60.25
72602;DHT22;60644;55.858;37.390;2023-01-08T07:19:05;-13.72;60.24
72602;DHT22;60644;55.858;37.390;2023-01-08T07:21:31;-13.68;60.15
72602;DHT22;60644;55.858;37.390;2023-01-08T07:23:57;-13.69;59.93
72602;DHT22;60644;55.858;37.390;2023-01-08T07:26:23;-13.67;59.93
72602;DHT22;60644;55.858;37.390;2023-01-08T07:28:49;-13.67;59.77
72602;DHT22;60644;55.858;37.390;2023-01-08T07:31:15;-13.68;59.63
72602;DHT22;60644;55.858;37.390;2023-01-08T07:33:41;-13.66;59.77
72602;DHT22;60644;55.858;37.390;2023-01-08T07:36:07;-13.65;59.65
72602;DHT22;60644;55.858;37.390;2023-01-08T07:38:33;-13.61;59.59
72602;DHT22;60644;55.858;37.390;2023-01-08T07:40:59;-13.57;59.49
72602;DHT22;60644;55.858;37.390;2023-01-08T07:43:25;-13.57;59.32
72602;DHT22;60644;55.858;37.390;2023-01-08T07:45:51;-13.55;59.35
72602;DHT22;60644;55.858;37.390;2023-01-08T07:48:17;-13.52;59.32
72602;DHT22;60644;55.858;37.390;2023-01-08T07:50:43;-13.53;59.05
72602;DHT22;60644;55.858;37.390;2023-01-08T07:53:10;-13.52;59.21
72602;DHT22;60644;55.858;37.390;2023-01-08T07:55:36;-13.51;59.33
72602;DHT22;60644;55.858;37.390;2023-01-08T07:58:10;-13.47;59.31
72602;DHT22;60644;55.858;37.390;2023-01-08T08:00:36;-13.45;59.45
72602;DHT22;60644;55.858;37.390;2023-01-08T08:03:08;-13.41;59.67
72602;DHT22;60644;55.858;37.390;2023-01-08T08:05:36;-13.41;59.23
72602;DHT22;60644;55.858;37.390;2023-01-08T08:08:07;-13.41;59.40
72602;DHT22;60644;55.858;37.390;2023-01-08T08:10:34;-13.36;59.38
72602;DHT22;60644;55.858;37.390;2023-01-08T08:13:00;-13.32;58.94
72602;DHT22;60644;55.858;37.390;2023-01-08T08:15:26;-13.28;59.28
72602;DHT22;60644;55.858;37.390;2023-01-08T08:17:52;-13.21;58.89
72602;DHT22;60644;55.858;37.390;2023-01-08T08:20:18;-13.10;59.11
72602;DHT22;60644;55.858;37.390;2023-01-08T08:22:45;-13.09;59.06
72602;DHT22;60644;55.858;37.390;2023-01-08T08:25:11;-13.09;58.97
72602;DHT22;60644;55.858;37.390;2023-01-08T08:27:41;-13.12;59.22
72602;DHT22;60644;55.858;37.390;2023-01-08T08:30:08;-13.15;58.91
72602;DHT22;60644;55.858;37.390;2023-01-08T08:32:34;-13.18;58.99
72602;DHT22;60644;55.858;37.390;2023-01-08T08:35:00;-13.19;59.22
72602;DHT22;60644;55.858;37.390;2023-01-08T08:37:28;-13.15;59.01
72602;DHT22;60644;55.858;37.390;2023-01-08T08:39:54;-13.10;59.05
72602;DHT22;60644;55.858;37.390;2023-01-08T08:42:20;-13.08;58.87
72602;DHT22;60644;55.858;37.390;2023-01-08T08:44:46;-13.09;58.54
72602;DHT22;60644;55.858;37.390;2023-01-08T08:47:12;-13.04;59.40
72602;DHT22;60644;55.858;37.390;2023-01-08T08:49:38;-12.93;59.54
72602;DHT22;60644;55.858;37.390;2023-01-08T08:52:04;-12.84;59.47
72602;DHT22;60644;55.858;37.390;2023-01-08T08:54:30;-12.77;59.33
72602;DHT22;60644;55.858;37.390;2023-01-08T08:56:56;-12.70;59.47
72602;DHT22;60644;55.858;37.390;2023-01-08T08:59:22;-12.66;58.90
72602;DHT22;60644;55.858;37.390;2023-01-08T09:01:48;-12.58;59.21
72602;DHT22;60644;55.858;37.390;2023-01-08T09:04:13;-12.55;58.87
72602;DHT22;60644;55.858;37.390;2023-01-08T09:06:39;-12.57;58.82
72602;DHT22;60644;55.858;37.390;2023-01-08T09:09:05;-12.53;59.05
72602;DHT22;60644;55.858;37.390;2023-01-08T09:11:31;-12.49;59.24
72602;DHT22;60644;55.858;37.390;2023-01-08T09:13:57;-12.43;59.35
72602;DHT22;60644;55.858;37.390;2023-01-08T09:16:22;-12.37;59.24
72602;DHT22;60644;55.858;37.390;2023-01-08T09:18:48;-12.35;59.22
72602;DHT22;60644;55.858;37.390;2023-01-08T09:21:14;-12.37;59.26
72602;DHT22;60644;55.858;37.390;2023-01-08T09:23:40;-12.36;59.32
72602;DHT22;60644;55.858;37.390;2023-01-08T09:26:07;-12.37;59.26
72602;DHT22;60644;55.858;37.390;2023-01-08T09:28:33;-12.36;59.14
72602;DHT22;60644;55.858;37.390;2023-01-08T09:31:02;-12.33;59.56
72602;DHT22;60644;55.858;37.390;2023-01-08T09:33:29;-12.32;59.36
72602;DHT22;60644;55.858;37.390;2023-01-08T09:35:55;-12.29;59.32
72602;DHT22;60644;55.858;37.390;2023-01-08T09:38:22;-12.28;58.68
72602;DHT22;60644;55.858;37.390;2023-01-08T09:41:18;-12.35;59.09
72602;DHT22;60644;55.858;37.390;2023-01-08T09:43:47;-12.29;59.28
72602;DHT22;60644;55.858;37.390;2023-01-08T09:46:17;-12.27;59.04
72602;DHT22;60644;55.858;37.390;2023-01-08T09:48:44;-12.24;59.12
72602;DHT22;60644;55.858;37.390;2023-01-08T09:51:15;-12.20;59.15
72602;DHT22;60644;55.858;37.390;2023-01-08T09:53:42;-12.13;59.06
72602;DHT22;60644;55.858;37.390;2023-01-08T09:56:15;-12.09;58.95
72602;DHT22;60644;55.858;37.390;2023-01-08T10:01:13;-11.96;59.22
72602;DHT22;60644;55.858;37.390;2023-01-08T10:03:46;-11.96;59.04
72602;DHT22;60644;55.858;37.390;2023-01-08T10:06:15;-11.97;59.06
72602;DHT22;60644;55.858;37.390;2023-01-08T10:08:41;-11.98;58.78
72602;DHT22;60644;55.858;37.390;2023-01-08T10:11:08;-11.96;58.61
72602;DHT22;60644;55.858;37.390;2023-01-08T10:13:37;-11.96;58.81
72602;DHT22;60644;55.858;37.390;2023-01-08T10:16:08;-11.98;59.03
72602;DHT22;60644;55.858;37.390;2023-01-08T10:18:36;-11.97;59.07
72602;DHT22;60644;55.858;37.390;2023-01-08T10:21:02;-11.97;59.06
72602;DHT22;60644;55.858;37.390;2023-01-08T10:23:28;-11.98;58.92
72602;DHT22;60644;55.858;37.390;2023-01-08T10:28:30;-11.89;58.98
72602;DHT22;60644;55.858;37.390;2023-01-08T10:31:04;-11.84;58.78
72602;DHT22;60644;55.858;37.390;2023-01-08T10:36:07;-11.79;58.77
72602;DHT22;60644;55.858;37.390;2023-01-08T10:38:54;-11.80;58.59
72602;DHT22;60644;55.858;37.390;2023-01-08T10:41:21;-11.76;58.93
72602;DHT22;60644;55.858;37.390;2023-01-08T10:43:51;-11.74;58.71
72602;DHT22;60644;55.858;37.390;2023-01-08T10:46:35;-11.74;58.63
72602;DHT22;60644;55.858;37.390;2023-01-08T10:49:11;-11.71;58.85
72602;DHT22;60644;55.858;37.390;2023-01-08T10:51:48;-11.71;58.71
72602;DHT22;60644;55.858;37.390;2023-01-08T10:54:25;-11.73;58.76
72602;DHT22;60644;55.858;37.390;2023-01-08T10:56:53;-11.70;58.96
72602;DHT22;60644;55.858;37.390;2023-01-08T10:59:19;-11.69;59.05
72602;DHT22;60644;55.858;37.390;2023-01-08T11:01:46;-11.67;58.93
72602;DHT22;60644;55.858;37.390;2023-01-08T11:04:31;-11.67;58.68
72602;DHT22;60644;55.858;37.390;2023-01-08T11:07:03;-11.68;58.48
72602;DHT22;60644;55.858;37.390;2023-01-08T11:09:32;-11.69;58.70
72602;DHT22;60644;55.858;37.390;2023-01-08T11:11:59;-11.69;58.91
72602;DHT22;60644;55.858;37.390;2023-01-08T11:14:27;-11.68;59.25
72602;DHT22;60644;55.858;37.390;2023-01-08T11:16:54;-11.67;58.92
72602;DHT22;60644;55.858;37.390;2023-01-08T11:19:27;-11.71;58.88
72602;DHT22;60644;55.858;37.390;2023-01-08T11:22:17;-11.81;58.19
72602;DHT22;60644;55.858;37.390;2023-01-08T11:24:45;-11.85;58.06
72602;DHT22;60644;55.858;37.390;2023-01-08T11:27:22;-11.84;58.33
72602;DHT22;60644;55.858;37.390;2023-01-08T11:29:59;-11.77;58.74
72602;DHT22;60644;55.858;37.390;2023-01-08T11:35:27;-11.67;58.55
72602;DHT22;60644;55.858;37.390;2023-01-08T11:37:56;-11.67;58.92
72602;DHT22;60644;55.858;37.390;2023-01-08T11:43:14;-11.69;58.45
72602;DHT22;60644;55.858;37.390;2023-01-08T11:55:00;-11.61;59.24
72602;DHT22;60644;55.858;37.390;2023-01-08T12:03:07;-11.59;59.12
72602;DHT22;60644;55.858;37.390;2023-01-08T12:05:46;-11.62;58.74
72602;DHT22;60644;55.858;37.390;2023-01-08T12:21:33;-11.73;59.49
72602;DHT22;60644;55.858;37.390;2023-01-08T12:24:14;-11.71;59.40
72602;DHT22;60644;55.858;37.390;2023-01-08T12:26:56;-11.69;59.52
72602;DHT22;60644;55.858;37.390;2023-01-08T12:37:26;-11.70;58.87
72602;DHT22;60644;55.858;37.390;2023-01-08T12:40:31;-11.75;58.54
72602;DHT22;60644;55.858;37.390;2023-01-08T12:42:59;-11.79;58.93
72602;DHT22;60644;55.858;37.390;2023-01-08T12:45:29;-11.80;59.19
72602;DHT22;60644;55.858;37.390;2023-01-08T12:48:07;-11.79;58.92
72602;DHT22;60644;55.858;37.390;2023-01-08T13:01:34;-12.05;59.57
72602;DHT22;60644;55.858;37.390;2023-01-08T13:04:03;-12.04;59.57
72602;DHT22;60644;55.858;37.390;2023-01-08T13:06:29;-11.99;59.71
72602;DHT22;60644;55.858;37.390;2023-01-08T13:08:57;-11.95;59.86
72602;DHT22;60644;55.858;37.390;2023-01-08T13:11:34;-11.91;59.81
72602;DHT22;60644;55.858;37.390;2023-01-08T13:14:05;-11.88;59.83
72602;DHT22;60644;55.858;37.390;2023-01-08T13:16:40;-11.85;59.93
72602;DHT22;60644;55.858;37.390;2023-01-08T13:19:22;-11.82;59.93
72602;DHT22;60644;55.858;37.390;2023-01-08T13:21:54;-11.84;59.82
72602;DHT22;60644;55.858;37.390;2023-01-08T13:24:38;-11.93;58.74
72602;DHT22;60644;55.858;37.390;2023-01-08T13:29:46;-12.11;58.97
72602;DHT22;60644;55.858;37.390;2023-01-08T13:32:45;-12.14;59.06
72602;DHT22;60644;55.858;37.390;2023-01-08T13:37:43;-12.21;58.79
72602;DHT22;60644;55.858;37.390;2023-01-08T13:43:01;-12.26;59.32
72602;DHT22;60644;55.858;37.390;2023-01-08T13:45:30;-12.27;59.27
72602;DHT22;60644;55.858;37.390;2023-01-08T13:47:57;-12.35;58.87
72602;DHT22;60644;55.858;37.390;2023-01-08T13:50:26;-12.43;58.63
72602;DHT22;60644;55.858;37.390;2023-01-08T13:52:59;-12.44;59.46
72602;DHT22;60644;55.858;37.390;2023-01-08T13:55:34;-12.42;59.79
72602;DHT22;60644;55.858;37.390;2023-01-08T13:58:28;-12.41;59.93
72602;DHT22;60644;55.858;37.390;2023-01-08T14:00:57;-12.36;60.14
72602;DHT22;60644;55.858;37.390;2023-01-08T14:03:33;-12.35;59.83
72602;DHT22;60644;55.858;37.390;2023-01-08T14:08:51;-12.35;59.35
72602;DHT22;60644;55.858;37.390;2023-01-08T14:11:20;-12.40;59.52
72602;DHT22;60644;55.858;37.390;2023-01-08T14:13:47;-12.38;59.59
72602;DHT22;60644;55.858;37.390;2023-01-08T14:16:14;-12.36;59.76
72602;DHT22;60644;55.858;37.390;2023-01-08T14:18:41;-12.33;59.81
72602;DHT22;60644;55.858;37.390;2023-01-08T14:21:08;-12.26;59.92
72602;DHT22;60644;55.858;37.390;2023-01-08T14:23:48;-12.27;59.55
72602;DHT22;60644;55.858;37.390;2023-01-08T14:26:28;-12.29;59.78
72602;DHT22;60644;55.858;37.390;2023-01-08T14:28:56;-12.30;59.61
72602;DHT22;60644;55.858;37.390;2023-01-08T14:31:23;-12.37;59.86
72602;DHT22;60644;55.858;37.390;2023-01-08T14:33:51;-12.39;59.69
72602;DHT22;60644;55.858;37.390;2023-01-08T14:36:17;-12.41;59.58
72602;DHT22;60644;55.858;37.390;2023-01-08T14:38:44;-12.52;58.68
72602;DHT22;60644;55.858;37.390;2023-01-08T14:41:29;-12.54;59.57
72602;DHT22;60644;55.858;37.390;2023-01-08T14:44:17;-12.53;59.57
72602;DHT22;60644;55.858;37.390;2023-01-08T14:46:43;-12.50;59.89
72602;DHT22;60644;55.858;37.390;2023-01-08T14:49:23;-12.45;59.57
72602;DHT22;60644;55.858;37.390;2023-01-08T14:51:49;-12.44;59.86
72602;DHT22;60644;55.858;37.390;2023-01-08T14:54:20;-12.41;59.93
72602;DHT22;60644;55.858;37.390;2023-01-08T14:56:52;-12.34;60.13
72602;DHT22;60644;55.858;37.390;2023-01-08T14:59:20;-12.27;60.17
72602;DHT22;60644;55.858;37.390;2023-01-08T15:01:51;-12.24;59.85
72602;DHT22;60644;55.858;37.390;2023-01-08T15:04:20;-12.33;59.73
72602;DHT22;60644;55.858;37.390;2023-01-08T15:06:48;-12.32;60.20
72602;DHT22;60644;55.858;37.390;2023-01-08T15:09:23;-12.25;60.59
72602;DHT22;60644;55.858;37.390;2023-01-08T15:11:54;-12.25;60.38
72602;DHT22;60644;55.858;37.390;2023-01-08T15:14:25;-12.26;60.37
72602;DHT22;60644;55.858;37.390;2023-01-08T15:16:56;-12.24;59.93
72602;DHT22;60644;55.858;37.390;2023-01-08T15:19:34;-12.30;59.24
72602;DHT22;60644;55.858;37.390;2023-01-08T15:22:03;-12.36;59.44
72602;DHT22;60644;55.858;37.390;2023-01-08T15:24:37;-12.42;58.87
72602;DHT22;60644;55.858;37.390;2023-01-08T15:27:17;-12.43;59.32
72602;DHT22;60644;55.858;37.390;2023-01-08T15:29:49;-12.42;59.52
72602;DHT22;60644;55.858;37.390;2023-01-08T15:34:42;-12.33;59.72
72602;DHT22;60644;55.858;37.390;2023-01-08T15:37:09;-12.28;59.83
72602;DHT22;60644;55.858;37.390;2023-01-08T15:39:35;-12.23;59.88
72602;DHT22;60644;55.858;37.390;2023-01-08T15:42:19;-12.15;60.03
72602;DHT22;60644;55.858;37.390;2023-01-08T15:45:27;-12.13;59.92
72602;DHT22;60644;55.858;37.390;2023-01-08T15:47:57;-12.13;59.90
72602;DHT22;60644;55.858;37.390;2023-01-08T15:50:24;-12.21;59.43
72602;DHT22;60644;55.858;37.390;2023-01-08T15:52:51;-12.26;59.65
72602;DHT22;60644;55.858;37.390;2023-01-08T15:55:21;-12.30;59.55
72602;DHT22;60644;55.858;37.390;2023-01-08T15:57:48;-12.28;59.59
72602;DHT22;60644;55.858;37.390;2023-01-08T16:00:15;-12.26;59.82
72602;DHT22;60644;55.858;37.390;2023-01-08T16:02:42;-12.23;59.54
72602;DHT22;60644;55.858;37.390;2023-01-08T16:05:10;-12.19;59.98
72602;DHT22;60644;55.858;37.390;2023-01-08T16:07:36;-12.12;59.95
72602;DHT22;60644;55.858;37.390;2023-01-08T16:10:02;-12.09;59.54
72602;DHT22;60644;55.858;37.390;2023-01-08T16:12:29;-12.09;59.66
72602;DHT22;60644;55.858;37.390;2023-01-08T16:14:54;-12.09;59.47
72602;DHT22;60644;55.858;37.390;2023-01-08T16:17:20;-12.03;59.62
72602;DHT22;60644;55.858;37.390;2023-01-08T16:19:46;-11.97;59.70
72602;DHT22;60644;55.858;37.390;2023-01-08T16:22:15;-11.92;59.90
72602;DHT22;60644;55.858;37.390;2023-01-08T16:24:41;-11.86;60.20
72602;DHT22;60644;55.858;37.390;2023-01-08T16:27:07;-11.80;60.17
72602;DHT22;60644;55.858;37.390;2023-01-08T16:29:34;-11.73;59.96
72602;DHT22;60644;55.858;37.390;2023-01-08T16:32:00;-11.71;60.15
72602;DHT22;60644;55.858;37.390;2023-01-08T16:34:26;-11.77;59.67
72602;DHT22;60644;55.858;37.390;2023-01-08T16:36:52;-11.85;58.82
72602;DHT22;60644;55.858;37.390;2023-01-08T16:39:18;-11.96;59.44
72602;DHT22;60644;55.858;37.390;2023-01-08T16:41:45;-12.04;59.45
72602;DHT22;60644;55.858;37.390;2023-01-08T16:44:22;-12.12;59.81
72602;DHT22;60644;55.858;37.390;2023-01-08T16:46:49;-12.07;60.17